Time;durP1;ratioP1;P1;durP2;ratioP2;P2;SDS_P1;SDS_P2;PMS_P1;PMS_P2;Temp;Humidity;BMP_temperature;BMP_pressure;BME280_temperature;BME280_humidity;BME280_pressure;Samples;Min_cycle;Max_cycle;Signal;HPM_P1;HPM_P2
2022/12/07 00:02:27;;;;;;;24.13;12.50;;;;;;;;;;5041001;28;20446;-64
2022/12/07 00:04:57;;;;;;;22.63;12.47;;;;;;;;;;5040703;28;20911;-64
2022/12/07 00:07:25;;;;;;;23.23;13.57;;;;;;;;;;5041153;28;20449;-64
2022/12/07 00:09:54;;;;;;;26.37;12.83;;;;;;;;;;5039745;28;20517;-64
2022/12/07 00:12:22;;;;;;;22.73;12.30;;;;;;;;;;5040969;28;20446;-64
2022/12/07 00:14:52;;;;;;;19.70;12.63;;;;;;;;;;5040720;28;20501;-64
2022/12/07 00:17:20;;;;;;;21.80;11.63;;;;;;;;;;5040866;28;20446;-64
2022/12/07 00:19:48;;;;;;;22.70;12.63;;;;;;;;;;5041388;28;20442;-64
2022/12/07 00:22:17;;;;;;;21.70;12.97;;;;;;;;;;5040544;28;20462;-64
2022/12/07 00:24:45;;;;;;;21.37;11.43;;;;;;;;;;5040369;28;20569;-64
2022/12/07 00:27:13;;;;;;;22.67;12.40;;;;;;;;;;5040624;28;20446;-64
2022/12/07 00:29:41;;;;;;;21.47;11.53;;;;;;;;;;5040839;28;20453;-64
2022/12/07 00:32:09;;;;;;;19.67;11.73;;;;;;;;;;5040500;28;20509;-64
2022/12/07 00:34:37;;;;;;;21.53;12.03;;;;;;;;;;5040361;28;20868;-64
2022/12/07 00:37:05;;;;;;;22.73;12.33;;;;;;;;;;5040620;28;20442;-64
2022/12/07 00:39:35;;;;;;;18.80;11.97;;;;;;;;;;5039019;28;20450;-64
2022/12/07 00:42:03;;;;;;;21.23;11.97;;;;;;;;;;5039381;28;20478;-64
2022/12/07 00:44:31;;;;;;;20.83;11.50;;;;;;;;;;5040296;28;20496;-64
2022/12/07 00:46:59;;;;;;;21.07;12.33;;;;;;;;;;5040222;28;20525;-64
2022/12/07 00:49:27;;;;;;;17.33;11.13;;;;;;;;;;5040061;28;20944;-64
2022/12/07 00:51:55;;;;;;;20.40;11.50;;;;;;;;;;5040146;28;20470;-64
2022/12/07 00:54:23;;;;;;;21.80;12.27;;;;;;;;;;5039741;28;20505;-64
2022/12/07 00:56:52;;;;;;;20.30;11.77;;;;;;;;;;5039937;28;21013;-64
2022/12/07 00:59:20;;;;;;;23.23;11.87;;;;;;;;;;5039896;28;20469;-64
2022/12/07 01:01:48;;;;;;;20.07;11.03;;;;;;;;;;5039960;28;20514;-64
2022/12/07 01:04:16;;;;;;;16.43;10.77;;;;;;;;;;5039814;28;20892;-64
2022/12/07 01:06:44;;;;;;;17.77;10.23;;;;;;;;;;5039948;28;20988;-63
2022/12/07 01:09:12;;;;;;;20.80;10.97;;;;;;;;;;5039796;28;20454;-64
2022/12/07 01:11:40;;;;;;;14.20;9.90;;;;;;;;;;5037773;28;20458;-64
2022/12/07 01:14:10;;;;;;;15.40;10.10;;;;;;;;;;5039631;28;20497;-64
2022/12/07 01:16:39;;;;;;;18.83;11.03;;;;;;;;;;5039639;28;20918;-64
2022/12/07 01:19:08;;;;;;;15.47;9.90;;;;;;;;;;5039515;28;20450;-64
2022/12/07 01:21:37;;;;;;;15.80;9.97;;;;;;;;;;5039604;28;20450;-64
2022/12/07 01:24:06;;;;;;;15.63;9.93;;;;;;;;;;5038955;28;20538;-64
2022/12/07 01:26:34;;;;;;;14.40;9.23;;;;;;;;;;5039474;28;20953;-64
2022/12/07 01:29:02;;;;;;;16.23;9.63;;;;;;;;;;5039408;28;20478;-64
2022/12/07 01:31:32;;;;;;;14.90;9.07;;;;;;;;;;5039686;28;20447;-64
2022/12/07 01:34:00;;;;;;;18.07;10.20;;;;;;;;;;5039478;28;20529;-64
2022/12/07 01:36:29;;;;;;;14.77;8.70;;;;;;;;;;5038722;28;20481;-65
2022/12/07 01:38:58;;;;;;;14.20;9.03;;;;;;;;;;5039047;28;20521;-64
2022/12/07 01:41:28;;;;;;;17.57;10.10;;;;;;;;;;5038781;28;20840;-64
2022/12/07 01:44:11;;;;;;;11.83;7.73;;;;;;;;;;5039321;28;20549;-64
2022/12/07 01:46:40;;;;;;;16.00;8.27;;;;;;;;;;5038545;28;20442;-64
2022/12/07 01:49:10;;;;;;;15.03;8.80;;;;;;;;;;5039299;28;20478;-64
2022/12/07 01:51:39;;;;;;;15.57;9.10;;;;;;;;;;5038957;28;20530;-64
2022/12/07 01:54:08;;;;;;;15.33;9.27;;;;;;;;;;5038701;28;20501;-64
2022/12/07 01:56:37;;;;;;;12.50;7.70;;;;;;;;;;5038763;28;21028;-64
2022/12/07 01:59:05;;;;;;;14.70;8.90;;;;;;;;;;5038946;28;20478;-64
2022/12/07 02:01:33;;;;;;;12.17;7.60;;;;;;;;;;5038980;28;20525;-64
2022/12/07 02:04:03;;;;;;;14.20;8.40;;;;;;;;;;5038923;28;20561;-64
2022/12/07 02:06:31;;;;;;;13.70;8.13;;;;;;;;;;5038177;28;20560;-64
2022/12/07 02:08:59;;;;;;;14.07;8.67;;;;;;;;;;5038280;28;20446;-64
2022/12/07 02:11:27;;;;;;;14.03;7.83;;;;;;;;;;5038811;28;20478;-64
2022/12/07 02:13:55;;;;;;;13.10;8.57;;;;;;;;;;5038732;28;20477;-64
2022/12/07 02:16:28;;;;;;;14.27;9.17;;;;;;;;;;5038786;28;20446;-64
2022/12/07 02:19:01;;;;;;;13.77;8.23;;;;;;;;;;5038741;28;20442;-64
2022/12/07 02:21:35;;;;;;;15.80;8.17;;;;;;;;;;5038714;28;20484;-64
2022/12/07 02:24:15;;;;;;;12.40;8.00;;;;;;;;;;5037930;28;20553;-64
2022/12/07 02:26:55;;;;;;;13.93;8.97;;;;;;;;;;5038176;28;20522;-64
2022/12/07 02:29:26;;;;;;;13.20;8.40;;;;;;;;;;5036763;28;20453;-64
2022/12/07 02:32:01;;;;;;;13.80;7.73;;;;;;;;;;5037820;28;20457;-64
2022/12/07 02:34:33;;;;;;;14.57;8.53;;;;;;;;;;5038402;28;20505;-64
2022/12/07 02:37:02;;;;;;;14.57;8.80;;;;;;;;;;5038428;28;20454;-64
2022/12/07 02:39:35;;;;;;;12.13;8.43;;;;;;;;;;5037924;28;20466;-64
2022/12/07 02:42:05;;;;;;;14.73;8.83;;;;;;;;;;5037834;28;20565;-64
2022/12/07 02:44:34;;;;;;;13.87;8.47;;;;;;;;;;5038182;28;20462;-64
2022/12/07 02:47:03;;;;;;;14.37;8.40;;;;;;;;;;5038359;28;20446;-64
2022/12/07 02:49:32;;;;;;;15.63;8.87;;;;;;;;;;5038150;28;20453;-64
2022/12/07 02:52:00;;;;;;;13.87;8.07;;;;;;;;;;5037969;28;20965;-64
2022/12/07 02:54:28;;;;;;;14.37;9.50;;;;;;;;;;5037541;28;20489;-64
2022/12/07 02:57:00;;;;;;;15.27;8.17;;;;;;;;;;5038013;28;20529;-64
2022/12/07 02:59:34;;;;;;;12.43;7.73;;;;;;;;;;5036085;28;20485;-64
2022/12/07 03:02:16;;;;;;;17.10;8.87;;;;;;;;;;5038083;28;20450;-64
2022/12/07 03:04:48;;;;;;;14.10;7.60;;;;;;;;;;5037801;28;20232;-64
2022/12/07 03:07:22;;;;;;;15.40;8.93;;;;;;;;;;5038032;28;20211;-64
2022/12/07 03:09:54;;;;;;;14.87;7.47;;;;;;;;;;5037755;28;20528;-64
2022/12/07 03:12:25;;;;;;;13.07;7.87;;;;;;;;;;5037538;28;20474;-64
2022/12/07 03:14:56;;;;;;;15.23;8.43;;;;;;;;;;5037691;28;20501;-65
2022/12/07 03:17:27;;;;;;;12.47;7.70;;;;;;;;;;5037544;28;21001;-64
2022/12/07 03:19:57;;;;;;;15.93;8.17;;;;;;;;;;5037956;28;20448;-64
2022/12/07 03:22:29;;;;;;;13.13;8.07;;;;;;;;;;5037605;28;21029;-64
2022/12/07 03:24:59;;;;;;;17.17;9.67;;;;;;;;;;5037147;28;20484;-64
2022/12/07 03:27:28;;;;;;;15.63;8.67;;;;;;;;;;5033224;28;20788;-64
2022/12/07 03:30:00;;;;;;;14.23;8.50;;;;;;;;;;5035423;28;20462;-64
2022/12/07 03:32:33;;;;;;;11.43;6.97;;;;;;;;;;5036313;28;20460;-64
2022/12/07 03:35:04;;;;;;;14.57;7.80;;;;;;;;;;5037395;28;20468;-64
2022/12/07 03:37:34;;;;;;;10.73;7.43;;;;;;;;;;5037578;28;20522;-64
2022/12/07 03:40:08;;;;;;;14.10;8.13;;;;;;;;;;5037156;28;20457;-64
2022/12/07 03:42:36;;;;;;;12.07;7.13;;;;;;;;;;5037112;28;20466;-64
2022/12/07 03:45:05;;;;;;;12.43;7.07;;;;;;;;;;5036987;28;20822;-64
2022/12/07 03:47:36;;;;;;;13.30;7.70;;;;;;;;;;5037795;28;20438;-64
2022/12/07 03:50:08;;;;;;;12.40;7.37;;;;;;;;;;5037359;28;20473;-64
2022/12/07 03:52:40;;;;;;;14.90;8.37;;;;;;;;;;5037491;28;20449;-64
2022/12/07 03:55:10;;;;;;;12.37;7.53;;;;;;;;;;5037203;28;20466;-64
2022/12/07 03:57:39;;;;;;;14.53;7.77;;;;;;;;;;5036172;28;20485;-64
2022/12/07 04:00:08;;;;;;;11.77;7.73;;;;;;;;;;5036628;28;20481;-64
2022/12/07 04:02:38;;;;;;;11.93;6.77;;;;;;;;;;5037345;28;20454;-64
2022/12/07 04:05:07;;;;;;;13.23;7.33;;;;;;;;;;5037289;28;20474;-64
2022/12/07 04:07:35;;;;;;;11.67;7.43;;;;;;;;;;5037097;28;20891;-64
2022/12/07 04:10:04;;;;;;;11.30;7.33;;;;;;;;;;5038680;28;20926;-64
2022/12/07 04:12:32;;;;;;;11.23;6.90;;;;;;;;;;5040774;28;20454;-64
2022/12/07 04:15:00;;;;;;;13.33;8.50;;;;;;;;;;5041021;28;20557;-64
2022/12/07 04:17:28;;;;;;;13.83;7.97;;;;;;;;;;5040935;28;20438;-64
2022/12/07 04:19:57;;;;;;;15.27;7.63;;;;;;;;;;5040978;28;20446;-64
2022/12/07 04:22:25;;;;;;;10.87;7.50;;;;;;;;;;5040929;28;20450;-64
2022/12/07 04:24:53;;;;;;;9.57;6.50;;;;;;;;;;5039649;28;20843;-64
2022/12/07 04:27:22;;;;;;;10.53;7.07;;;;;;;;;;5040608;28;20577;-64
2022/12/07 04:29:50;;;;;;;10.43;6.03;;;;;;;;;;5040886;28;20525;-64
2022/12/07 04:32:18;;;;;;;11.33;6.23;;;;;;;;;;5040363;28;20461;-64
2022/12/07 04:34:46;;;;;;;9.60;6.53;;;;;;;;;;5040695;28;20553;-64
2022/12/07 04:37:22;;;;;;;10.70;6.63;;;;;;;;;;5040513;28;20437;-64
2022/12/07 04:39:50;;;;;;;10.00;6.50;;;;;;;;;;5041517;28;20446;-63
2022/12/07 04:42:18;;;;;;;8.47;5.77;;;;;;;;;;5040366;28;20980;-64
2022/12/07 04:44:46;;;;;;;11.23;6.43;;;;;;;;;;5030469;28;20835;-63
2022/12/07 04:47:14;;;;;;;13.30;7.07;;;;;;;;;;5037585;28;20486;-63
2022/12/07 04:49:42;;;;;;;9.97;7.13;;;;;;;;;;5033502;28;20477;-63
2022/12/07 04:52:10;;;;;;;10.33;6.53;;;;;;;;;;5028070;28;20446;-63
2022/12/07 04:54:40;;;;;;;8.80;5.73;;;;;;;;;;5032844;28;20454;-63
2022/12/07 04:57:08;;;;;;;10.23;6.47;;;;;;;;;;5030721;28;20953;-63
2022/12/07 04:59:36;;;;;;;10.67;6.77;;;;;;;;;;5033001;28;20509;-63
2022/12/07 05:02:11;;;;;;;8.60;6.67;;;;;;;;;;5030579;28;20454;-63
2022/12/07 05:04:40;;;;;;;10.83;7.10;;;;;;;;;;5031152;28;20494;-63
2022/12/07 05:07:08;;;;;;;12.60;7.73;;;;;;;;;;5028048;28;20985;-63
2022/12/07 05:09:36;;;;;;;13.23;7.90;;;;;;;;;;5028787;28;20955;-63
2022/12/07 05:12:06;;;;;;;11.17;7.50;;;;;;;;;;5031215;28;20466;-63
2022/12/07 05:14:34;;;;;;;12.13;7.23;;;;;;;;;;5035488;28;20506;-63
2022/12/07 05:17:02;;;;;;;11.90;7.43;;;;;;;;;;5033929;28;20443;-63
2022/12/07 05:19:30;;;;;;;11.03;7.00;;;;;;;;;;5028843;28;20529;-63
2022/12/07 05:21:58;;;;;;;9.47;6.60;;;;;;;;;;5029962;28;20545;-63
2022/12/07 05:24:26;;;;;;;12.43;7.37;;;;;;;;;;5035189;28;20478;-63
2022/12/07 05:26:54;;;;;;;17.07;7.93;;;;;;;;;;5039365;28;20851;-63
2022/12/07 05:29:24;;;;;;;11.83;7.17;;;;;;;;;;5039921;28;20873;-63
2022/12/07 05:31:52;;;;;;;13.73;7.97;;;;;;;;;;5039620;28;20443;-64
2022/12/07 05:34:20;;;;;;;11.57;7.73;;;;;;;;;;5039316;28;20985;-64
2022/12/07 05:36:49;;;;;;;12.67;8.07;;;;;;;;;;5039516;28;20469;-64
2022/12/07 05:39:16;;;;;;;11.70;7.03;;;;;;;;;;5039038;28;20457;-64
2022/12/07 05:44:31;;;;;;;9.20;6.43;;;;;;;;;;5040234;28;20476;-64
2022/12/07 05:46:59;;;;;;;11.20;7.70;;;;;;;;;;5038988;28;20486;-64
2022/12/07 05:49:27;;;;;;;15.03;8.80;;;;;;;;;;5038993;28;20535;-64
2022/12/07 05:51:55;;;;;;;12.43;7.73;;;;;;;;;;5038502;28;20945;-64
2022/12/07 05:54:23;;;;;;;12.20;7.50;;;;;;;;;;5038509;28;20825;-64
2022/12/07 05:56:51;;;;;;;12.00;7.87;;;;;;;;;;5039108;28;20525;-64
2022/12/07 05:59:24;;;;;;;12.20;7.90;;;;;;;;;;5038412;28;20462;-64
2022/12/07 06:01:54;;;;;;;11.70;7.20;;;;;;;;;;5038858;28;20930;-64
2022/12/07 06:04:22;;;;;;;14.30;7.20;;;;;;;;;;5035783;28;20569;-63
2022/12/07 06:06:51;;;;;;;12.70;6.63;;;;;;;;;;5038465;28;20480;-63
2022/12/07 06:09:19;;;;;;;11.30;7.70;;;;;;;;;;5038290;28;20481;-64
2022/12/07 06:14:36;;;;;;;11.03;7.70;;;;;;;;;;5026032;28;20463;-64
2022/12/07 06:17:05;;;;;;;11.50;6.50;;;;;;;;;;5035446;28;20454;-63
2022/12/07 06:19:35;;;;;;;11.63;7.13;;;;;;;;;;5037496;28;20477;-64
2022/12/07 06:22:04;;;;;;;11.93;7.03;;;;;;;;;;5038513;28;20449;-62
2022/12/07 06:24:32;;;;;;;8.83;6.07;;;;;;;;;;5037848;28;20477;-63
2022/12/07 06:27:00;;;;;;;8.10;6.13;;;;;;;;;;5038100;28;20486;-63
2022/12/07 06:29:28;;;;;;;10.57;6.87;;;;;;;;;;5029793;28;20477;-63
2022/12/07 06:31:56;;;;;;;10.90;6.53;;;;;;;;;;5038325;28;20482;-63
2022/12/07 06:34:27;;;;;;;11.00;7.83;;;;;;;;;;5038068;28;20996;-63
2022/12/07 06:36:55;;;;;;;9.40;6.87;;;;;;;;;;5038294;28;20442;-63
2022/12/07 06:39:24;;;;;;;11.97;7.57;;;;;;;;;;5037941;28;20944;-63
2022/12/07 06:41:53;;;;;;;10.00;6.63;;;;;;;;;;5027790;28;20474;-63
2022/12/07 06:44:22;;;;;;;9.20;6.73;;;;;;;;;;5038071;28;20474;-63
2022/12/07 06:46:50;;;;;;;9.00;6.27;;;;;;;;;;5037707;28;21017;-64
2022/12/07 06:49:42;;;;;;;8.77;6.73;;;;;;;;;;5036760;28;20454;-64
2022/12/07 06:52:10;;;;;;;10.57;6.67;;;;;;;;;;5036499;28;20458;-64
2022/12/07 06:54:38;;;;;;;10.83;6.57;;;;;;;;;;5035642;28;20498;-64
2022/12/07 06:57:06;;;;;;;10.97;7.37;;;;;;;;;;5037863;28;20442;-64
2022/12/07 06:59:34;;;;;;;9.33;6.93;;;;;;;;;;5037609;28;20442;-62
2022/12/07 07:02:02;;;;;;;12.40;7.30;;;;;;;;;;5035524;28;20546;-64
2022/12/07 07:04:30;;;;;;;10.40;7.10;;;;;;;;;;5033999;28;20517;-64
2022/12/07 07:07:00;;;;;;;10.40;6.87;;;;;;;;;;5037946;28;20454;-64
2022/12/07 07:09:28;;;;;;;10.67;6.67;;;;;;;;;;5037345;28;20446;-64
2022/12/07 07:11:56;;;;;;;8.70;6.30;;;;;;;;;;5037623;28;20549;-64
2022/12/07 07:14:24;;;;;;;9.13;6.57;;;;;;;;;;5037885;28;20494;-64
2022/12/07 07:16:56;;;;;;;10.63;6.63;;;;;;;;;;5038080;28;20508;-64
2022/12/07 07:19:24;;;;;;;10.93;6.47;;;;;;;;;;5030184;28;20933;-64
2022/12/07 07:21:55;;;;;;;11.03;7.43;;;;;;;;;;5038040;28;20533;-64
2022/12/07 07:24:24;;;;;;;12.97;7.37;;;;;;;;;;5037177;28;20828;-64
2022/12/07 07:26:52;;;;;;;11.67;6.40;;;;;;;;;;5037789;28;20450;-64
2022/12/07 07:29:20;;;;;;;12.10;7.73;;;;;;;;;;5038004;28;20481;-64
2022/12/07 07:31:48;;;;;;;12.03;7.03;;;;;;;;;;5036472;28;20449;-64
2022/12/07 07:34:17;;;;;;;11.77;7.33;;;;;;;;;;5037104;28;20846;-64
2022/12/07 07:36:45;;;;;;;12.00;7.83;;;;;;;;;;5037253;28;20454;-64
2022/12/07 07:39:13;;;;;;;12.07;7.40;;;;;;;;;;5037575;28;20446;-64
2022/12/07 07:41:43;;;;;;;12.90;7.53;;;;;;;;;;5037122;28;20980;-63
2022/12/07 07:44:11;;;;;;;9.13;6.77;;;;;;;;;;5038273;28;20497;-64
2022/12/07 07:46:39;;;;;;;10.60;7.23;;;;;;;;;;5041528;28;20950;-64
2022/12/07 07:49:07;;;;;;;11.07;7.37;;;;;;;;;;5041717;28;20482;-64
2022/12/07 07:51:36;;;;;;;9.70;7.03;;;;;;;;;;5041209;28;20439;-65
2022/12/07 07:54:05;;;;;;;9.00;6.20;;;;;;;;;;5040720;28;20977;-64
2022/12/07 07:56:33;;;;;;;11.33;7.80;;;;;;;;;;5041220;28;20450;-64
2022/12/07 07:59:05;;;;;;;11.50;7.10;;;;;;;;;;5041579;28;20447;-64
2022/12/07 08:01:35;;;;;;;12.00;7.20;;;;;;;;;;5041699;28;20474;-64
2022/12/07 08:04:04;;;;;;;9.37;6.43;;;;;;;;;;5039910;28;20478;-64
2022/12/07 08:06:34;;;;;;;10.60;7.07;;;;;;;;;;5041604;28;20520;-64
2022/12/07 08:09:05;;;;;;;12.40;7.13;;;;;;;;;;5040853;28;20580;-64
2022/12/07 08:11:33;;;;;;;13.37;7.20;;;;;;;;;;5041529;28;20446;-64
2022/12/07 08:14:03;;;;;;;10.57;6.97;;;;;;;;;;5040915;28;20850;-64
2022/12/07 08:16:31;;;;;;;12.23;7.67;;;;;;;;;;5041235;28;20449;-64
2022/12/07 08:18:59;;;;;;;9.87;6.93;;;;;;;;;;5040843;28;20438;-61
2022/12/07 08:21:27;;;;;;;11.80;7.27;;;;;;;;;;5040696;28;20809;-62
2022/12/07 08:23:55;;;;;;;12.90;7.43;;;;;;;;;;5032355;28;20489;-62
2022/12/07 08:26:23;;;;;;;10.90;7.80;;;;;;;;;;5040223;28;20460;-62
2022/12/07 08:28:53;;;;;;;15.03;8.23;;;;;;;;;;5040279;28;20490;-62
2022/12/07 08:31:24;;;;;;;17.17;9.23;;;;;;;;;;5039397;28;20537;-63
2022/12/07 08:33:53;;;;;;;13.77;8.33;;;;;;;;;;5040536;28;20480;-63
2022/12/07 08:36:22;;;;;;;13.77;8.23;;;;;;;;;;5041091;28;20480;-62
2022/12/07 08:38:54;;;;;;;16.73;8.60;;;;;;;;;;5040614;28;20454;-63
2022/12/07 08:41:42;;;;;;;12.87;8.33;;;;;;;;;;5041009;28;20498;-62
2022/12/07 08:44:11;;;;;;;14.80;9.23;;;;;;;;;;5041309;28;20492;-62
2022/12/07 08:46:43;;;;;;;13.70;8.50;;;;;;;;;;5040656;28;20843;-62
2022/12/07 08:49:12;;;;;;;13.43;8.43;;;;;;;;;;5040392;28;20482;-63
2022/12/07 08:51:41;;;;;;;15.17;8.87;;;;;;;;;;5040642;28;21025;-62
2022/12/07 08:54:12;;;;;;;15.40;8.67;;;;;;;;;;5040632;28;20466;-62
2022/12/07 08:56:40;;;;;;;15.93;9.00;;;;;;;;;;5038733;28;20446;-61
2022/12/07 08:59:08;;;;;;;15.90;9.67;;;;;;;;;;5040092;28;20442;-62
2022/12/07 09:01:36;;;;;;;16.37;8.57;;;;;;;;;;5038768;28;20482;-62
2022/12/07 09:04:06;;;;;;;15.13;9.97;;;;;;;;;;5038816;28;20478;-62
2022/12/07 09:06:35;;;;;;;16.77;9.33;;;;;;;;;;5040240;28;20963;-62
2022/12/07 09:09:04;;;;;;;13.10;8.17;;;;;;;;;;5040714;28;20517;-62
2022/12/07 09:11:32;;;;;;;13.43;8.73;;;;;;;;;;5039882;28;20485;-63
2022/12/07 09:14:00;;;;;;;15.53;10.07;;;;;;;;;;5039879;28;21047;-63
2022/12/07 09:16:28;;;;;;;15.60;8.93;;;;;;;;;;5039813;28;20207;-62
2022/12/07 09:18:57;;;;;;;13.87;9.83;;;;;;;;;;5039736;28;20525;-63
2022/12/07 09:21:27;;;;;;;19.13;10.53;;;;;;;;;;5039874;28;20211;-62
2022/12/07 09:23:54;;;;;;;18.90;10.73;;;;;;;;;;5040501;28;20234;-63
2022/12/07 09:26:22;;;;;;;17.17;9.97;;;;;;;;;;5039528;28;20754;-62
2022/12/07 09:28:51;;;;;;;15.30;9.33;;;;;;;;;;5039778;28;20318;-62
2022/12/07 09:31:19;;;;;;;18.60;9.87;;;;;;;;;;5039549;28;20517;-62
2022/12/07 09:33:54;;;;;;;15.40;9.67;;;;;;;;;;5038968;28;20482;-62
2022/12/07 09:36:22;;;;;;;15.10;9.20;;;;;;;;;;5038845;28;20815;-62
2022/12/07 09:38:52;;;;;;;13.77;8.77;;;;;;;;;;5039434;28;20477;-62
2022/12/07 09:41:21;;;;;;;19.20;10.47;;;;;;;;;;5038171;28;20489;-63
2022/12/07 09:43:49;;;;;;;14.77;10.00;;;;;;;;;;5039497;28;20473;-62
2022/12/07 09:46:21;;;;;;;19.70;9.37;;;;;;;;;;5025306;28;20439;-62
2022/12/07 09:48:51;;;;;;;17.30;9.20;;;;;;;;;;5039419;28;20474;-62
2022/12/07 09:51:22;;;;;;;15.00;8.57;;;;;;;;;;5039027;28;20442;-62
2022/12/07 09:53:55;;;;;;;15.80;8.77;;;;;;;;;;5039474;28;20524;-62
2022/12/07 09:56:24;;;;;;;14.10;8.70;;;;;;;;;;5039283;28;20446;-62
2022/12/07 09:59:01;;;;;;;17.30;8.97;;;;;;;;;;5039760;28;20438;-62
2022/12/07 10:01:30;;;;;;;16.03;9.47;;;;;;;;;;5038624;28;20492;-62
2022/12/07 10:04:02;;;;;;;17.87;9.67;;;;;;;;;;5038128;28;20576;-62
2022/12/07 10:06:31;;;;;;;15.37;9.33;;;;;;;;;;5039133;28;20451;-61
2022/12/07 10:09:00;;;;;;;14.87;9.23;;;;;;;;;;5037878;28;20993;-62
2022/12/07 10:11:28;;;;;;;17.03;9.33;;;;;;;;;;5038657;28;20816;-61
2022/12/07 10:13:56;;;;;;;15.90;9.27;;;;;;;;;;5038647;28;20461;-63
2022/12/07 10:16:32;;;;;;;15.47;9.43;;;;;;;;;;5038772;28;20958;-64
2022/12/07 10:19:18;;;;;;;15.60;9.13;;;;;;;;;;5039064;28;20207;-64
2022/12/07 10:22:00;;;;;;;12.13;8.07;;;;;;;;;;5038852;28;20204;-64
2022/12/07 10:24:30;;;;;;;15.07;9.07;;;;;;;;;;5035192;28;20472;-64
2022/12/07 10:26:58;;;;;;;15.13;9.27;;;;;;;;;;5035491;28;20478;-64
2022/12/07 10:29:30;;;;;;;16.50;9.63;;;;;;;;;;5038632;28;20521;-64
2022/12/07 10:31:59;;;;;;;19.73;10.10;;;;;;;;;;5037967;28;20210;-64
2022/12/07 10:34:29;;;;;;;16.57;9.40;;;;;;;;;;5038264;28;20822;-64
2022/12/07 10:37:12;;;;;;;19.67;10.77;;;;;;;;;;5038955;28;20207;-64
2022/12/07 10:39:46;;;;;;;13.70;8.27;;;;;;;;;;5036757;28;20211;-64
2022/12/07 10:42:19;;;;;;;14.50;10.00;;;;;;;;;;5038072;28;21516;-64
2022/12/07 10:44:48;;;;;;;15.73;9.17;;;;;;;;;;5038318;28;20474;-64
2022/12/07 10:47:31;;;;;;;16.87;9.67;;;;;;;;;;5038550;28;20242;-64
2022/12/07 10:50:11;;;;;;;16.70;9.80;;;;;;;;;;5037068;28;20219;-64
2022/12/07 10:52:46;;;;;;;16.67;9.40;;;;;;;;;;5038678;28;20302;-64
2022/12/07 10:55:26;;;;;;;22.50;9.93;;;;;;;;;;5038285;28;20273;-64
2022/12/07 10:58:03;;;;;;;16.30;9.93;;;;;;;;;;5034045;28;20283;-64
2022/12/07 11:00:33;;;;;;;15.70;9.30;;;;;;;;;;5031438;28;20235;-63
2022/12/07 11:03:22;;;;;;;16.20;9.17;;;;;;;;;;5036906;28;20211;-63
2022/12/07 11:05:53;;;;;;;18.87;9.73;;;;;;;;;;5031627;28;20529;-63
2022/12/07 11:08:26;;;;;;;15.77;10.50;;;;;;;;;;5037812;28;20208;-63
2022/12/07 11:10:57;;;;;;;15.43;9.33;;;;;;;;;;5037371;28;20251;-63
2022/12/07 11:13:30;;;;;;;15.30;10.30;;;;;;;;;;5037855;28;20297;-63
2022/12/07 11:16:05;;;;;;;16.33;9.50;;;;;;;;;;5037448;28;20638;-62
2022/12/07 11:18:37;;;;;;;17.60;9.30;;;;;;;;;;5036432;28;20207;-63
2022/12/07 11:21:08;;;;;;;17.57;9.57;;;;;;;;;;5037292;28;20659;-62
2022/12/07 11:23:42;;;;;;;17.10;8.23;;;;;;;;;;5037255;28;20310;-63
2022/12/07 11:26:16;;;;;;;12.27;7.83;;;;;;;;;;5028722;28;20286;-63
2022/12/07 11:28:56;;;;;;;16.47;9.43;;;;;;;;;;5037250;28;20605;-62
2022/12/07 11:31:30;;;;;;;10.80;8.10;;;;;;;;;;5036485;28;20295;-63
2022/12/07 11:34:01;;;;;;;13.73;7.90;;;;;;;;;;5037045;28;20229;-63
2022/12/07 11:36:37;;;;;;;15.73;9.20;;;;;;;;;;5037374;28;20267;-63
2022/12/07 11:39:10;;;;;;;13.23;7.87;;;;;;;;;;5037398;28;20214;-63
2022/12/07 11:41:43;;;;;;;13.50;8.60;;;;;;;;;;5037140;28;20239;-63
2022/12/07 11:44:20;;;;;;;15.07;8.60;;;;;;;;;;5035439;28;20510;-63
2022/12/07 11:46:56;;;;;;;17.40;9.33;;;;;;;;;;5037116;28;20211;-63
2022/12/07 11:49:28;;;;;;;16.20;9.53;;;;;;;;;;5037385;28;20234;-63
2022/12/07 11:51:59;;;;;;;15.17;9.30;;;;;;;;;;5034158;28;20218;-64
2022/12/07 11:54:29;;;;;;;16.47;9.40;;;;;;;;;;5035899;28;20251;-64
2022/12/07 11:57:03;;;;;;;16.43;10.03;;;;;;;;;;5031632;28;20282;-63
2022/12/07 11:59:34;;;;;;;19.30;9.17;;;;;;;;;;5037079;28;20239;-63
2022/12/07 12:02:12;;;;;;;15.43;8.87;;;;;;;;;;5037479;28;20212;-64
2022/12/07 12:04:48;;;;;;;14.00;8.53;;;;;;;;;;5034049;28;20223;-63
2022/12/07 12:07:20;;;;;;;14.17;9.23;;;;;;;;;;5037192;28;20303;-63
2022/12/07 12:10:16;;;;;;;14.03;8.67;;;;;;;;;;5036601;28;20212;-63
2022/12/07 12:13:02;;;;;;;15.17;8.17;;;;;;;;;;5036727;28;20234;-63
2022/12/07 12:15:59;;;;;;;13.30;8.10;;;;;;;;;;5036951;28;20204;-63
2022/12/07 12:18:37;;;;;;;12.50;7.83;;;;;;;;;;5036327;28;20207;-63
2022/12/07 12:21:07;;;;;;;12.80;7.30;;;;;;;;;;5028335;28;20473;-62
2022/12/07 12:23:40;;;;;;;15.70;8.80;;;;;;;;;;5036567;28;20691;-62
2022/12/07 12:26:14;;;;;;;13.93;9.03;;;;;;;;;;5036644;28;20537;-63
2022/12/07 12:28:50;;;;;;;15.43;8.43;;;;;;;;;;5036515;28;20484;-63
2022/12/07 12:31:32;;;;;;;13.97;8.30;;;;;;;;;;5038449;28;20820;-62
2022/12/07 12:34:00;;;;;;;14.40;8.20;;;;;;;;;;5027189;28;20466;-63
2022/12/07 12:36:44;;;;;;;13.23;8.13;;;;;;;;;;5038065;28;20250;-62
2022/12/07 12:39:14;;;;;;;12.53;7.13;;;;;;;;;;5040199;28;20457;-63
2022/12/07 12:42:08;;;;;;;13.23;8.17;;;;;;;;;;5040068;28;20481;-63
2022/12/07 12:44:42;;;;;;;13.77;8.10;;;;;;;;;;5040084;28;20462;-63
2022/12/07 12:47:27;;;;;;;14.43;8.50;;;;;;;;;;5040540;28;20450;-63
2022/12/07 12:50:13;;;;;;;12.67;7.93;;;;;;;;;;5032305;28;20457;-63
2022/12/07 12:52:52;;;;;;;19.57;8.03;;;;;;;;;;5040133;28;20446;-63
2022/12/07 12:55:23;;;;;;;14.13;9.23;;;;;;;;;;5039987;28;20478;-63
2022/12/07 12:58:09;;;;;;;13.30;7.80;;;;;;;;;;5039849;28;21009;-63
2022/12/07 13:00:39;;;;;;;12.67;8.27;;;;;;;;;;5037881;28;20534;-63
2022/12/07 13:03:21;;;;;;;12.23;8.30;;;;;;;;;;5039751;28;20529;-63
2022/12/07 13:06:09;;;;;;;15.13;7.63;;;;;;;;;;5040252;28;20446;-63
2022/12/07 13:08:41;;;;;;;9.47;7.13;;;;;;;;;;5039573;28;20474;-64
2022/12/07 13:11:19;;;;;;;16.03;7.33;;;;;;;;;;5039642;28;20490;-63
2022/12/07 13:13:47;;;;;;;14.70;7.43;;;;;;;;;;5039965;28;20318;-62
2022/12/07 13:16:39;;;;;;;13.07;7.37;;;;;;;;;;5037546;28;20450;-63
2022/12/07 13:19:22;;;;;;;11.00;7.73;;;;;;;;;;5037795;28;20929;-62
2022/12/07 13:21:51;;;;;;;12.87;7.73;;;;;;;;;;5017481;28;20489;-62
2022/12/07 13:24:19;;;;;;;13.37;7.63;;;;;;;;;;5039450;28;20224;-62
2022/12/07 13:26:47;;;;;;;14.40;7.43;;;;;;;;;;5039580;28;20462;-64
2022/12/07 13:29:16;;;;;;;13.23;6.80;;;;;;;;;;5039559;28;20718;-61
2022/12/07 13:31:49;;;;;;;11.40;7.60;;;;;;;;;;5039688;28;20240;-62
2022/12/07 13:34:30;;;;;;;14.60;8.20;;;;;;;;;;5039555;28;20462;-62
2022/12/07 13:36:59;;;;;;;12.93;7.40;;;;;;;;;;5039297;28;20212;-61
2022/12/07 13:39:28;;;;;;;11.93;7.20;;;;;;;;;;5039306;28;20442;-62
2022/12/07 13:41:57;;;;;;;15.20;6.90;;;;;;;;;;5038294;28;20474;-62
2022/12/07 13:44:26;;;;;;;14.20;8.20;;;;;;;;;;5039372;28;20266;-62
2022/12/07 13:47:02;;;;;;;11.93;7.17;;;;;;;;;;5039144;28;20295;-63
2022/12/07 13:49:30;;;;;;;14.83;8.00;;;;;;;;;;5037837;28;20207;-62
2022/12/07 13:52:13;;;;;;;11.73;6.67;;;;;;;;;;5037697;28;20493;-61
2022/12/07 13:54:44;;;;;;;12.43;7.57;;;;;;;;;;5038577;28;20565;-62
2022/12/07 13:57:12;;;;;;;13.17;7.90;;;;;;;;;;5036187;28;20462;-63
2022/12/07 13:59:41;;;;;;;23.40;11.73;;;;;;;;;;5032384;28;20476;-63
2022/12/07 14:02:21;;;;;;;16.73;8.17;;;;;;;;;;5039386;28;20453;-63
2022/12/07 14:04:50;;;;;;;11.20;6.67;;;;;;;;;;5039012;28;20631;-63
2022/12/07 14:07:20;;;;;;;35.43;11.83;;;;;;;;;;5038977;28;20446;-63
2022/12/07 14:09:55;;;;;;;12.93;7.43;;;;;;;;;;5038869;28;20538;-63
2022/12/07 14:12:24;;;;;;;15.20;7.60;;;;;;;;;;5038841;28;20239;-63
2022/12/07 14:14:55;;;;;;;17.83;7.80;;;;;;;;;;5039040;28;20473;-63
2022/12/07 14:17:26;;;;;;;15.53;7.83;;;;;;;;;;5039087;28;20446;-63
2022/12/07 14:19:56;;;;;;;14.67;7.50;;;;;;;;;;5037323;28;20227;-63
2022/12/07 14:22:30;;;;;;;19.20;7.70;;;;;;;;;;5039212;28;20282;-63
2022/12/07 14:25:02;;;;;;;15.30;7.80;;;;;;;;;;5038250;28;20526;-63
2022/12/07 14:27:33;;;;;;;15.47;8.13;;;;;;;;;;5038413;28;20457;-63
2022/12/07 14:30:02;;;;;;;11.97;7.53;;;;;;;;;;5038829;28;20473;-63
2022/12/07 14:32:32;;;;;;;15.97;8.83;;;;;;;;;;5038356;28;20230;-63
2022/12/07 14:35:01;;;;;;;14.77;8.30;;;;;;;;;;5038360;28;20231;-63
2022/12/07 14:37:31;;;;;;;12.20;7.50;;;;;;;;;;5038513;28;20203;-63
2022/12/07 14:39:59;;;;;;;20.63;9.00;;;;;;;;;;5038334;28;20207;-63
2022/12/07 14:42:30;;;;;;;15.73;7.90;;;;;;;;;;5028170;28;20285;-63
2022/12/07 14:44:59;;;;;;;16.97;8.87;;;;;;;;;;5038342;28;20377;-63
2022/12/07 14:47:28;;;;;;;19.10;9.40;;;;;;;;;;5038611;28;20211;-63
2022/12/07 14:50:19;;;;;;;22.00;9.23;;;;;;;;;;5037484;28;20207;-63
2022/12/07 14:52:55;;;;;;;15.10;8.53;;;;;;;;;;5038004;28;20228;-63
2022/12/07 14:55:44;;;;;;;15.30;8.03;;;;;;;;;;5038158;28;20579;-63
2022/12/07 14:58:14;;;;;;;15.23;7.73;;;;;;;;;;5037968;28;20211;-63